createdAt,value
2023-03-24T00:02:03.145Z,45.29
2023-03-24T00:04:29.836Z,45.47
2023-03-24T00:06:56.532Z,45.57
2023-03-24T00:09:23.236Z,45.42
2023-03-24T00:11:49.881Z,45.28
2023-03-24T00:14:18.966Z,45.45
2023-03-24T00:16:46.720Z,45.69
2023-03-24T00:19:16.228Z,46.16
2023-03-24T00:21:44.103Z,46.80
2023-03-24T00:24:11.706Z,46.71
2023-03-24T00:26:43.126Z,46.71
2023-03-24T00:29:11.843Z,46.88
2023-03-24T00:31:40.557Z,47.30
2023-03-24T00:34:08.827Z,47.62
2023-03-24T00:36:36.120Z,47.69
2023-03-24T00:39:03.032Z,47.72
2023-03-24T00:41:30.142Z,47.83
2023-03-24T00:43:58.567Z,47.76
2023-03-24T00:46:29.378Z,47.49
2023-03-24T00:49:05.825Z,47.31
2023-03-24T00:51:34.480Z,47.63
2023-03-24T00:54:02.194Z,47.65
2023-03-24T00:56:31.540Z,47.73
2023-03-24T00:59:02.694Z,47.84
2023-03-24T01:01:33.228Z,47.56
2023-03-24T01:04:00.307Z,47.39
2023-03-24T01:06:30.189Z,47.08
2023-03-24T01:08:56.941Z,47.29
2023-03-24T01:11:25.348Z,47.82
2023-03-24T01:13:53.821Z,48.75
2023-03-24T01:16:25.891Z,48.67
2023-03-24T01:18:53.055Z,48.78
2023-03-24T01:21:19.912Z,48.69
2023-03-24T01:23:49.512Z,48.78
2023-03-24T01:26:16.208Z,48.59
2023-03-24T01:28:43.862Z,48.79
2023-03-24T01:31:11.567Z,49.00
2023-03-24T01:33:38.466Z,48.61
2023-03-24T01:36:07.972Z,48.32
2023-03-24T01:38:35.434Z,49.01
2023-03-24T01:41:03.128Z,49.64
2023-03-24T01:43:33.255Z,50.78
2023-03-24T01:46:08.285Z,50.05
2023-03-24T01:48:57.113Z,49.56
2023-03-24T01:51:25.512Z,49.22
2023-03-24T01:54:01.849Z,49.66
2023-03-24T01:56:29.100Z,50.16
2023-03-24T01:58:56.976Z,50.29
2023-03-24T02:01:30.968Z,49.97
2023-03-24T02:04:09.145Z,50.46
2023-03-24T02:06:41.259Z,50.16
2023-03-24T02:09:10.515Z,50.30
2023-03-24T02:11:37.865Z,50.66
2023-03-24T02:14:06.465Z,50.35
2023-03-24T02:16:34.369Z,50.21
2023-03-24T02:19:20.037Z,50.00
2023-03-24T02:21:59.242Z,49.89
2023-03-24T02:24:25.908Z,50.30
2023-03-24T02:26:52.856Z,49.77
2023-03-24T02:29:29.924Z,49.85
2023-03-24T02:31:58.954Z,49.83
2023-03-24T02:34:47.605Z,50.33
2023-03-24T02:37:33.957Z,49.79
2023-03-24T02:40:17.096Z,50.03
2023-03-24T02:43:03.142Z,50.38
2023-03-24T02:45:35.518Z,50.49
2023-03-24T02:48:21.124Z,50.34
2023-03-24T02:50:51.324Z,50.38
2023-03-24T02:53:41.347Z,50.46
2023-03-24T02:56:30.186Z,50.58
2023-03-24T02:59:10.138Z,50.83
2023-03-24T03:01:43.628Z,50.94
2023-03-24T03:04:33.293Z,50.91
2023-03-24T03:07:02.802Z,51.09
2023-03-24T03:09:29.566Z,50.96
2023-03-24T03:11:58.611Z,50.87
2023-03-24T03:14:27.747Z,50.53
2023-03-24T03:17:06.328Z,50.82
2023-03-24T03:19:34.099Z,50.54
2023-03-24T03:22:04.181Z,50.31
2023-03-24T03:24:32.544Z,50.31
2023-03-24T03:27:05.712Z,50.07
2023-03-24T03:29:34.197Z,50.58
2023-03-24T03:32:10.488Z,50.71
2023-03-24T03:34:37.727Z,51.99
2023-03-24T03:37:24.787Z,52.59
2023-03-24T03:39:59.141Z,53.23
2023-03-24T03:42:29.263Z,53.35
2023-03-24T03:44:56.169Z,53.19
2023-03-24T03:47:25.344Z,53.06
2023-03-24T03:49:54.296Z,52.84
2023-03-24T03:52:20.973Z,52.59
2023-03-24T03:54:49.522Z,52.87
2023-03-24T03:57:16.452Z,52.45
2023-03-24T04:00:12.152Z,52.36
2023-03-24T04:02:52.650Z,52.56
2023-03-24T04:05:52.595Z,52.31
2023-03-24T04:08:25.136Z,52.12
2023-03-24T04:11:01.104Z,51.54
2023-03-24T04:13:36.405Z,51.54
2023-03-24T04:16:29.239Z,51.77
2023-03-24T04:19:10.478Z,51.80
2023-03-24T04:21:43.229Z,52.20
2023-03-24T04:24:19.717Z,52.30
2023-03-24T04:26:54.720Z,52.42
2023-03-24T04:29:26.758Z,52.30
2023-03-24T04:31:54.548Z,52.49
2023-03-24T04:34:42.153Z,52.36
2023-03-24T04:37:42.003Z,52.90
2023-03-24T04:40:14.954Z,53.46
2023-03-24T04:42:42.847Z,54.17
2023-03-24T04:45:12.713Z,54.64
2023-03-24T04:47:58.967Z,54.06
2023-03-24T04:50:57.449Z,54.21
2023-03-24T04:53:28.810Z,54.90
2023-03-24T04:55:58.633Z,55.09
2023-03-24T04:58:45.767Z,55.19
2023-03-24T05:01:14.278Z,55.20
2023-03-24T05:03:47.942Z,55.10
2023-03-24T05:06:17.538Z,55.02
2023-03-24T05:08:49.188Z,55.49
2023-03-24T05:11:16.361Z,55.44
2023-03-24T05:13:49.145Z,55.36
2023-03-24T05:16:18.496Z,56.05
2023-03-24T05:18:57.865Z,56.78
2023-03-24T05:21:25.401Z,55.27
2023-03-24T05:23:52.744Z,54.66
2023-03-24T05:26:22.359Z,54.44
2023-03-24T05:29:05.185Z,53.97
2023-03-24T05:31:31.950Z,53.65
2023-03-24T05:34:05.477Z,53.61
2023-03-24T05:36:38.506Z,53.45
2023-03-24T05:39:05.616Z,53.34
2023-03-24T05:41:42.038Z,53.22
2023-03-24T05:44:08.678Z,52.93
2023-03-24T05:46:38.355Z,53.14
2023-03-24T05:49:05.057Z,53.32
2023-03-24T05:51:35.219Z,52.73
2023-03-24T05:54:06.357Z,52.32
2023-03-24T05:56:40.058Z,52.32
2023-03-24T05:59:21.339Z,52.55
2023-03-24T06:02:10.553Z,52.59
2023-03-24T06:04:49.324Z,51.63
2023-03-24T06:07:22.291Z,51.52
2023-03-24T06:09:51.344Z,51.89
2023-03-24T06:12:21.657Z,52.02
2023-03-24T06:15:03.758Z,52.20
2023-03-24T06:17:32.170Z,52.12
2023-03-24T06:20:05.690Z,51.88
2023-03-24T06:22:44.694Z,52.08
2023-03-24T06:25:15.376Z,52.06
2023-03-24T06:27:47.599Z,51.78
2023-03-24T06:30:18.926Z,51.42
2023-03-24T06:32:48.194Z,51.41
2023-03-24T06:35:18.356Z,51.29
2023-03-24T06:37:51.802Z,50.74
2023-03-24T06:40:19.676Z,50.62
2023-03-24T06:42:54.777Z,50.93
2023-03-24T06:45:26.335Z,50.85
2023-03-24T06:47:56.314Z,50.98
2023-03-24T06:50:31.242Z,51.02
2023-03-24T06:52:58.058Z,50.65
2023-03-24T06:55:27.361Z,50.71
2023-03-24T06:57:54.373Z,50.54
2023-03-24T07:00:45.171Z,50.69
2023-03-24T07:03:35.062Z,50.22
2023-03-24T07:06:18.490Z,49.89
2023-03-24T07:08:49.901Z,49.52
2023-03-24T07:11:16.730Z,49.46
2023-03-24T07:13:52.953Z,48.87
2023-03-24T07:16:19.725Z,48.54
2023-03-24T07:18:50.293Z,48.53
2023-03-24T07:21:18.300Z,47.25
2023-03-24T07:23:48.641Z,46.15
2023-03-24T07:26:17.221Z,47.01
2023-03-24T07:28:49.095Z,46.42
2023-03-24T07:31:38.348Z,45.95
2023-03-24T07:34:08.431Z,44.41
2023-03-24T07:36:37.358Z,44.32
2023-03-24T07:39:09.512Z,43.61
2023-03-24T07:41:39.306Z,43.92
2023-03-24T07:44:14.488Z,43.56
2023-03-24T07:46:48.719Z,43.64
2023-03-24T07:49:19.799Z,43.24
2023-03-24T07:52:12.677Z,43.41
2023-03-24T07:54:47.749Z,42.94
2023-03-24T07:57:37.390Z,42.36
2023-03-24T08:00:18.167Z,41.56
2023-03-24T08:02:57.528Z,41.61
2023-03-24T08:05:43.521Z,41.33
2023-03-24T08:08:21.683Z,41.63
2023-03-24T08:10:50.584Z,41.54
2023-03-24T08:13:20.076Z,40.46
2023-03-24T08:15:47.001Z,40.90
2023-03-24T08:18:16.418Z,40.81
2023-03-24T08:20:44.227Z,40.02
2023-03-24T08:23:11.253Z,40.43
2023-03-24T08:25:40.355Z,40.33
2023-03-24T08:28:07.681Z,39.25
2023-03-24T08:30:36.848Z,40.09
2023-03-24T08:33:06.681Z,40.03
2023-03-24T08:35:34.349Z,39.96
2023-03-24T08:38:06.908Z,39.41
2023-03-24T08:40:36.873Z,39.36
2023-03-24T08:43:08.953Z,39.50
2023-03-24T08:45:38.336Z,39.13
2023-03-24T08:48:05.835Z,39.24
2023-03-24T08:50:34.606Z,39.08
2023-03-24T08:53:01.352Z,39.44
2023-03-24T08:55:33.713Z,38.86
2023-03-24T08:58:00.642Z,38.98
2023-03-24T09:00:29.061Z,38.59
2023-03-24T09:03:01.428Z,39.09
2023-03-24T09:05:43.844Z,39.25
2023-03-24T09:08:11.363Z,38.83
2023-03-24T09:10:38.833Z,39.44
2023-03-24T09:13:05.699Z,39.42
2023-03-24T09:15:32.565Z,39.51
2023-03-24T09:17:59.203Z,39.03
2023-03-24T09:20:28.820Z,38.76
2023-03-24T09:22:56.208Z,38.86
2023-03-24T09:25:23.070Z,38.88
2023-03-24T09:27:50.443Z,39.23
2023-03-24T09:30:17.899Z,39.10
2023-03-24T09:32:52.964Z,38.68
2023-03-24T09:35:19.875Z,38.59
2023-03-24T09:37:47.353Z,38.26
2023-03-24T09:40:21.491Z,38.93
2023-03-24T09:42:52.634Z,38.58
2023-03-24T09:45:20.453Z,38.69
2023-03-24T09:47:52.905Z,38.15
2023-03-24T09:50:24.184Z,38.41
2023-03-24T09:52:52.186Z,38.62
2023-03-24T09:55:25.767Z,38.26
2023-03-24T09:57:55.370Z,37.76
2023-03-24T10:00:28.436Z,37.98
2023-03-24T10:02:59.478Z,37.64
2023-03-24T10:05:37.872Z,37.62
2023-03-24T10:08:16.434Z,37.45
2023-03-24T10:11:06.384Z,35.57
2023-03-24T10:13:40.856Z,35.97
2023-03-24T10:16:09.834Z,36.05
2023-03-24T10:18:55.947Z,36.13
2023-03-24T10:21:24.890Z,36.35
2023-03-24T10:23:54.993Z,36.38
2023-03-24T10:26:31.895Z,36.42
2023-03-24T10:29:13.880Z,36.38
2023-03-24T10:31:42.630Z,36.16
2023-03-24T10:34:10.794Z,35.54
2023-03-24T10:36:39.438Z,34.85
2023-03-24T10:39:18.996Z,35.19
2023-03-24T10:41:52.028Z,34.90
2023-03-24T10:44:18.669Z,34.96
2023-03-24T10:46:48.528Z,35.07
2023-03-24T10:49:15.172Z,34.95
2023-03-24T10:51:46.678Z,34.34
2023-03-24T10:54:18.814Z,34.54
2023-03-24T10:57:05.913Z,33.45
2023-03-24T10:59:34.446Z,32.65
2023-03-24T11:02:10.473Z,32.14
2023-03-24T11:04:39.320Z,31.47
2023-03-24T11:07:11.174Z,31.70
2023-03-24T11:09:44.887Z,31.88
2023-03-24T11:12:26.716Z,31.97
2023-03-24T11:15:10.496Z,32.16
2023-03-24T11:17:45.552Z,32.23
2023-03-24T11:20:18.990Z,32.09
2023-03-24T11:22:56.116Z,32.20
2023-03-24T11:25:25.687Z,31.81
2023-03-24T11:27:56.995Z,31.81
2023-03-24T11:30:23.651Z,31.26
2023-03-24T11:32:50.442Z,30.59
2023-03-24T11:35:20.441Z,30.99
2023-03-24T11:37:47.239Z,30.66
2023-03-24T11:40:16.860Z,30.51
2023-03-24T11:42:46.694Z,29.94
2023-03-24T11:45:32.228Z,30.28
2023-03-24T11:47:59.292Z,30.37
2023-03-24T11:50:30.169Z,30.32
2023-03-24T11:52:56.771Z,30.38
2023-03-24T11:55:23.330Z,29.94
2023-03-24T11:57:58.948Z,29.24
2023-03-24T12:00:32.304Z,27.95
2023-03-24T12:03:20.174Z,27.50
2023-03-24T12:05:58.199Z,26.86
2023-03-24T12:08:28.076Z,27.74
2023-03-24T12:11:00.391Z,27.69
2023-03-24T12:13:39.302Z,27.95
2023-03-24T12:16:16.053Z,27.26
2023-03-24T12:18:54.747Z,26.50
2023-03-24T12:21:42.590Z,25.49
2023-03-24T12:24:12.247Z,25.50
2023-03-24T12:26:41.380Z,25.86
2023-03-24T12:29:20.447Z,24.78
2023-03-24T12:32:13.466Z,25.77
2023-03-24T12:34:46.304Z,25.47
2023-03-24T12:37:22.285Z,25.90
2023-03-24T12:39:49.254Z,26.03
2023-03-24T12:42:16.302Z,26.35
2023-03-24T12:44:44.566Z,26.36
2023-03-24T12:47:30.133Z,26.82
2023-03-24T12:50:15.491Z,26.99
2023-03-24T12:53:16.389Z,26.73
2023-03-24T12:55:52.353Z,26.86
2023-03-24T12:58:28.262Z,26.26
2023-03-24T13:00:58.559Z,25.94
2023-03-24T13:03:30.897Z,25.32
2023-03-24T13:06:07.262Z,25.31
2023-03-24T13:08:41.481Z,24.73
2023-03-24T13:11:09.148Z,25.79
2023-03-24T13:13:40.529Z,25.89
2023-03-24T13:16:09.148Z,25.65
2023-03-24T13:18:47.219Z,24.99
2023-03-24T13:21:17.584Z,25.12
2023-03-24T13:23:59.554Z,25.58
2023-03-24T13:26:45.187Z,25.99
2023-03-24T13:29:17.425Z,26.21
2023-03-24T13:31:45.589Z,26.30
2023-03-24T13:34:41.893Z,25.35
2023-03-24T13:37:13.524Z,25.79
2023-03-24T13:39:43.636Z,26.53
2023-03-24T13:42:24.880Z,26.55
2023-03-24T13:44:51.520Z,25.56
2023-03-24T13:47:23.649Z,24.91
2023-03-24T13:50:08.406Z,23.46
2023-03-24T13:52:38.399Z,22.33
2023-03-24T13:55:14.106Z,22.46
2023-03-24T13:57:41.465Z,22.55
2023-03-24T14:00:14.404Z,21.10
2023-03-24T14:02:43.085Z,20.70
2023-03-24T14:05:10.987Z,20.90
2023-03-24T14:07:43.737Z,21.25
2023-03-24T14:10:16.667Z,21.47
2023-03-24T14:12:53.923Z,21.37
2023-03-24T14:15:32.968Z,21.34
2023-03-24T14:18:20.463Z,22.52
2023-03-24T14:20:58.673Z,23.86
2023-03-24T14:23:53.229Z,23.35
2023-03-24T14:26:20.183Z,23.04
2023-03-24T14:28:52.552Z,22.26
2023-03-24T14:31:19.258Z,23.70
2023-03-24T14:33:55.255Z,24.97
2023-03-24T14:36:48.268Z,26.13
2023-03-24T14:39:33.297Z,26.61
2023-03-24T14:42:04.201Z,26.84
2023-03-24T14:44:55.081Z,27.02
2023-03-24T14:47:22.443Z,27.01
2023-03-24T14:49:52.160Z,26.73
2023-03-24T14:52:27.926Z,26.68
2023-03-24T14:54:55.303Z,26.24
2023-03-24T14:57:26.917Z,26.20
2023-03-24T15:00:01.224Z,26.35
2023-03-24T15:02:35.770Z,26.83
2023-03-24T15:05:17.946Z,26.98
2023-03-24T15:07:46.290Z,27.17
2023-03-24T15:10:16.814Z,27.69
2023-03-24T15:12:46.865Z,27.49
2023-03-24T15:15:23.132Z,27.74
2023-03-24T15:17:53.139Z,27.56
2023-03-24T15:20:24.315Z,27.89
2023-03-24T15:22:55.419Z,28.01
2023-03-24T15:25:28.345Z,27.90
2023-03-24T15:27:55.861Z,28.20
2023-03-24T15:30:22.596Z,28.26
2023-03-24T15:32:51.714Z,28.49
2023-03-24T15:35:20.388Z,28.42
2023-03-24T15:37:51.353Z,28.81
2023-03-24T15:40:27.384Z,28.96
2023-03-24T15:42:54.747Z,29.34
2023-03-24T15:45:28.742Z,29.79
2023-03-24T15:47:55.889Z,29.46
2023-03-24T15:50:35.755Z,29.00
2023-03-24T15:53:03.835Z,28.51
2023-03-24T15:55:31.929Z,28.35
2023-03-24T15:58:00.488Z,28.71
2023-03-24T16:00:39.514Z,28.88
2023-03-24T16:03:06.996Z,29.07
2023-03-24T16:05:37.510Z,29.67
2023-03-24T16:08:07.273Z,29.72
2023-03-24T16:10:42.665Z,29.59
2023-03-24T16:13:15.636Z,29.54
2023-03-24T16:15:45.320Z,30.14
2023-03-24T16:18:24.586Z,30.10
2023-03-24T16:20:53.392Z,30.32
2023-03-24T16:23:31.760Z,30.17
2023-03-24T16:25:59.057Z,30.31
2023-03-24T16:28:25.804Z,30.38
2023-03-24T16:30:57.208Z,30.67
2023-03-24T16:33:24.124Z,30.74
2023-03-24T16:35:58.098Z,30.62
2023-03-24T16:38:25.507Z,30.69
2023-03-24T16:40:53.013Z,30.84
2023-03-24T16:43:19.965Z,30.67
2023-03-24T16:45:47.134Z,30.76
2023-03-24T16:48:23.042Z,30.76
2023-03-24T16:50:51.751Z,30.97
2023-03-24T16:53:18.669Z,30.83
2023-03-24T16:55:47.777Z,31.25
2023-03-24T16:58:14.853Z,31.15
2023-03-24T17:00:43.983Z,31.12
2023-03-24T17:03:10.851Z,31.19
2023-03-24T17:05:39.970Z,31.07
2023-03-24T17:08:11.724Z,31.15
2023-03-24T17:10:38.558Z,31.28
2023-03-24T17:13:09.914Z,31.44
2023-03-24T17:15:38.622Z,31.32
2023-03-24T17:18:14.308Z,31.70
2023-03-24T17:20:41.874Z,31.73
2023-03-24T17:23:12.802Z,31.76
2023-03-24T17:25:39.816Z,31.62
2023-03-24T17:28:09.826Z,31.53
2023-03-24T17:30:36.806Z,31.70
2023-03-24T17:33:07.413Z,31.77
2023-03-24T17:35:34.494Z,31.99
2023-03-24T17:38:01.174Z,31.60
2023-03-24T17:40:27.850Z,31.72
2023-03-24T17:42:59.711Z,31.68
2023-03-24T17:45:26.410Z,31.53
2023-03-24T17:47:55.900Z,32.04
2023-03-24T17:50:22.693Z,32.17
2023-03-24T17:52:49.825Z,32.24
2023-03-24T17:55:18.993Z,32.57
2023-03-24T17:57:45.967Z,32.63
2023-03-24T18:00:16.557Z,32.87
2023-03-24T18:02:43.266Z,32.71
2023-03-24T18:05:12.859Z,33.16
2023-03-24T18:07:42.714Z,33.01
2023-03-24T18:10:09.895Z,33.14
2023-03-24T18:12:37.139Z,33.51
2023-03-24T18:15:05.177Z,33.36
2023-03-24T18:17:32.243Z,33.35
2023-03-24T18:20:10.346Z,33.45
2023-03-24T18:22:37.839Z,33.23
2023-03-24T18:25:04.581Z,33.39
2023-03-24T18:27:31.375Z,33.33
2023-03-24T18:30:00.443Z,33.52
2023-03-24T18:32:27.269Z,33.57
2023-03-24T18:34:54.240Z,33.37
2023-03-24T18:37:23.254Z,33.57
2023-03-24T18:39:52.362Z,33.41
2023-03-24T18:42:19.025Z,33.64
2023-03-24T18:44:46.138Z,33.75
2023-03-24T18:47:13.312Z,34.53
2023-03-24T18:49:42.426Z,34.39
2023-03-24T18:52:11.475Z,34.77
2023-03-24T18:54:38.049Z,34.53
2023-03-24T18:57:08.749Z,34.73
2023-03-24T18:59:35.499Z,34.42
2023-03-24T19:02:04.824Z,34.51
2023-03-24T19:04:31.785Z,34.10
2023-03-24T19:07:00.568Z,34.15
2023-03-24T19:09:27.415Z,33.85
2023-03-24T19:11:54.102Z,34.14
2023-03-24T19:14:21.105Z,33.96
2023-03-24T19:16:49.869Z,34.09
2023-03-24T19:19:18.497Z,34.19
2023-03-24T19:21:47.354Z,34.42
2023-03-24T19:24:13.999Z,34.23
2023-03-24T19:26:40.608Z,34.17
2023-03-24T19:29:09.621Z,34.16
2023-03-24T19:31:36.528Z,34.21
2023-03-24T19:34:05.761Z,34.12
2023-03-24T19:36:37.001Z,33.99
2023-03-24T19:39:08.959Z,34.10
2023-03-24T19:41:38.102Z,34.15
2023-03-24T19:44:07.150Z,34.19
2023-03-24T19:46:36.302Z,34.12
2023-03-24T19:49:05.462Z,34.02
2023-03-24T19:51:32.472Z,34.51
2023-03-24T19:53:59.120Z,34.04
2023-03-24T19:56:25.911Z,34.44
2023-03-24T19:58:54.996Z,34.70
2023-03-24T20:01:24.074Z,34.61
2023-03-24T20:03:51.596Z,34.43
2023-03-24T20:06:20.798Z,34.65
2023-03-24T20:08:47.462Z,34.71
2023-03-24T20:11:16.661Z,35.48
2023-03-24T20:13:43.238Z,35.36
2023-03-24T20:16:10.020Z,35.52
2023-03-24T20:18:39.003Z,35.61
2023-03-24T20:21:09.209Z,35.46
2023-03-24T20:23:35.972Z,36.13
2023-03-24T20:26:04.170Z,36.27
2023-03-24T20:28:33.228Z,36.98
2023-03-24T20:31:03.274Z,37.69
2023-03-24T20:33:30.261Z,38.72
2023-03-24T20:35:59.354Z,38.99
2023-03-24T20:38:26.672Z,39.42
2023-03-24T20:40:57.343Z,38.80
2023-03-24T20:43:24.250Z,39.58
2023-03-24T20:45:59.468Z,39.19
2023-03-24T20:48:26.596Z,39.56
2023-03-24T20:50:53.196Z,39.35
2023-03-24T20:53:25.021Z,39.67
2023-03-24T20:56:01.617Z,39.59
2023-03-24T20:58:29.017Z,39.55
2023-03-24T21:00:58.273Z,39.77
2023-03-24T21:03:25.364Z,40.26
2023-03-24T21:05:52.484Z,40.72
2023-03-24T21:08:19.400Z,40.56
2023-03-24T21:10:45.994Z,40.89
2023-03-24T21:13:16.871Z,40.86
2023-03-24T21:15:46.428Z,41.87
2023-03-24T21:18:13.087Z,41.82
2023-03-24T21:20:47.304Z,42.10
2023-03-24T21:23:13.873Z,42.08
2023-03-24T21:25:40.557Z,42.17
2023-03-24T21:28:07.131Z,42.64
2023-03-24T21:30:33.800Z,42.37
2023-03-24T21:33:00.912Z,42.25
2023-03-24T21:35:28.076Z,42.30
2023-03-24T21:37:54.793Z,42.65
2023-03-24T21:40:25.079Z,43.01
2023-03-24T21:42:53.241Z,43.42
2023-03-24T21:45:20.895Z,43.81
2023-03-24T21:47:50.182Z,43.96
2023-03-24T21:50:23.220Z,44.66
2023-03-24T21:52:53.306Z,45.70
2023-03-24T21:55:23.295Z,45.81
2023-03-24T21:57:52.326Z,44.88
2023-03-24T22:00:25.379Z,45.30
2023-03-24T22:02:54.596Z,46.28
2023-03-24T22:05:24.680Z,45.82
2023-03-24T22:07:51.694Z,45.60
2023-03-24T22:10:29.920Z,45.97
2023-03-24T22:12:56.742Z,46.56
2023-03-24T22:15:29.919Z,46.55
2023-03-24T22:17:57.914Z,46.73
2023-03-24T22:20:28.378Z,46.74
2023-03-24T22:22:57.912Z,45.84
2023-03-24T22:25:27.389Z,46.28
2023-03-24T22:27:56.100Z,46.67
2023-03-24T22:30:25.113Z,46.21
2023-03-24T22:32:51.800Z,46.15
2023-03-24T22:35:18.944Z,46.01
2023-03-24T22:37:47.606Z,46.42
2023-03-24T22:40:14.245Z,46.05
2023-03-24T22:42:43.436Z,45.95
2023-03-24T22:45:10.372Z,45.58
2023-03-24T22:47:37.458Z,46.03
2023-03-24T22:50:04.214Z,45.92
2023-03-24T22:52:30.997Z,45.68
2023-03-24T22:55:00.259Z,46.06
2023-03-24T22:57:27.730Z,46.32
2023-03-24T22:59:54.334Z,45.92
2023-03-24T23:02:24.726Z,45.97
2023-03-24T23:04:51.922Z,46.12
2023-03-24T23:07:22.421Z,45.95
2023-03-24T23:09:53.616Z,45.83
2023-03-24T23:12:21.430Z,45.96
2023-03-24T23:14:48.085Z,45.83
2023-03-24T23:17:19.602Z,45.65
2023-03-24T23:19:46.279Z,46.15
2023-03-24T23:22:13.004Z,45.81
2023-03-24T23:24:42.620Z,45.80
2023-03-24T23:27:11.450Z,45.64
2023-03-24T23:29:40.876Z,46.29
2023-03-24T23:32:07.860Z,46.33
2023-03-24T23:34:34.874Z,47.03
2023-03-24T23:37:04.947Z,46.43
2023-03-24T23:39:36.679Z,46.45
2023-03-24T23:42:05.879Z,46.31
2023-03-24T23:44:32.592Z,46.23
2023-03-24T23:47:02.312Z,46.44
2023-03-24T23:49:31.462Z,46.43
2023-03-24T23:51:58.070Z,46.27
2023-03-24T23:54:24.751Z,46.44
2023-03-24T23:56:53.905Z,46.13
2023-03-24T23:59:21.006Z,45.84
